sensor_id;sensor_type;location;lat;lon;timestamp;pressure;altitude;pressure_sealevel;temperature;humidity
70302;BME280;57706;56.326;43.882;2023-11-21T00:01:19;99919.47;;;-4.94;100.00
70302;BME280;57706;56.326;43.882;2023-11-21T00:03:45;99916.19;;;-5.16;100.00
70302;BME280;57706;56.326;43.882;2023-11-21T00:06:11;99926.69;;;-5.03;100.00
70302;BME280;57706;56.326;43.882;2023-11-21T00:08:37;99927.00;;;-5.09;100.00
70302;BME280;57706;56.326;43.882;2023-11-21T00:11:03;99911.94;;;-4.98;100.00
70302;BME280;57706;56.326;43.882;2023-11-21T00:13:34;99922.56;;;-5.05;100.00
70302;BME280;57706;56.326;43.882;2023-11-21T00:16:00;99915.09;;;-5.10;100.00
70302;BME280;57706;56.326;43.882;2023-11-21T00:18:26;99918.88;;;-5.00;100.00
70302;BME280;57706;56.326;43.882;2023-11-21T00:20:52;99906.06;;;-5.00;100.00
70302;BME280;57706;56.326;43.882;2023-11-21T00:23:17;99909.22;;;-4.94;100.00
70302;BME280;57706;56.326;43.882;2023-11-21T00:25:43;99903.94;;;-4.91;100.00
70302;BME280;57706;56.326;43.882;2023-11-21T00:28:09;99896.25;;;-4.91;100.00
70302;BME280;57706;56.326;43.882;2023-11-21T00:30:35;99890.97;;;-4.88;100.00
70302;BME280;57706;56.326;43.882;2023-11-21T00:33:01;99897.22;;;-4.94;100.00
70302;BME280;57706;56.326;43.882;2023-11-21T00:35:26;99893.97;;;-4.98;100.00
70302;BME280;57706;56.326;43.882;2023-11-21T00:37:53;99901.81;;;-5.18;100.00
70302;BME280;57706;56.326;43.882;2023-11-21T00:40:19;99883.72;;;-4.98;100.00
70302;BME280;57706;56.326;43.882;2023-11-21T00:42:47;99889.16;;;-4.86;100.00
70302;BME280;57706;56.326;43.882;2023-11-21T00:45:13;99876.59;;;-4.73;100.00
70302;BME280;57706;56.326;43.882;2023-11-21T00:47:39;99875.75;;;-4.74;100.00
70302;BME280;57706;56.326;43.882;2023-11-21T00:50:06;99880.56;;;-4.67;100.00
70302;BME280;57706;56.326;43.882;2023-11-21T00:52:32;99875.13;;;-4.79;100.00
70302;BME280;57706;56.326;43.882;2023-11-21T00:54:58;99865.47;;;-4.74;100.00
70302;BME280;57706;56.326;43.882;2023-11-21T00:57:29;99866.97;;;-4.70;100.00
70302;BME280;57706;56.326;43.882;2023-11-21T00:59:55;99861.41;;;-4.78;100.00
70302;BME280;57706;56.326;43.882;2023-11-21T01:02:20;99872.88;;;-4.85;100.00
70302;BME280;57706;56.326;43.882;2023-11-21T01:04:46;99869.56;;;-4.87;100.00
70302;BME280;57706;56.326;43.882;2023-11-21T01:07:14;99870.59;;;-4.74;100.00
70302;BME280;57706;56.326;43.882;2023-11-21T01:09:41;99870.59;;;-4.74;100.00
70302;BME280;57706;56.326;43.882;2023-11-21T01:12:07;99865.53;;;-4.75;100.00
70302;BME280;57706;56.326;43.882;2023-11-21T01:14:33;99857.84;;;-4.75;100.00
70302;BME280;57706;56.326;43.882;2023-11-21T01:16:59;99854.84;;;-4.84;100.00
70302;BME280;57706;56.326;43.882;2023-11-21T01:19:24;99859.22;;;-4.86;100.00
70302;BME280;57706;56.326;43.882;2023-11-21T01:21:50;99862.63;;;-4.85;100.00
70302;BME280;57706;56.326;43.882;2023-11-21T01:24:17;99866.06;;;-4.86;100.00
70302;BME280;57706;56.326;43.882;2023-11-21T01:26:43;99868.78;;;-4.72;100.00
70302;BME280;57706;56.326;43.882;2023-11-21T01:29:10;99868.47;;;-4.65;100.00
70302;BME280;57706;56.326;43.882;2023-11-21T01:31:36;99869.63;;;-4.71;100.00
70302;BME280;57706;56.326;43.882;2023-11-21T01:34:02;99864.34;;;-4.68;100.00
70302;BME280;57706;56.326;43.882;2023-11-21T01:36:32;99864.28;;;-4.84;100.00
70302;BME280;57706;56.326;43.882;2023-11-21T01:38:58;99866.63;;;-4.79;100.00
70302;BME280;57706;56.326;43.882;2023-11-21T01:41:27;99859.06;;;-5.00;100.00
70302;BME280;57706;56.326;43.882;2023-11-21T01:43:54;99869.56;;;-4.87;100.00
70302;BME280;57706;56.326;43.882;2023-11-21T01:46:21;99868.47;;;-4.65;100.00
70302;BME280;57706;56.326;43.882;2023-11-21T01:48:48;99864.53;;;-4.55;100.00
70302;BME280;57706;56.326;43.882;2023-11-21T01:51:15;99858.75;;;-4.59;100.00
70302;BME280;57706;56.326;43.882;2023-11-21T01:53:42;99855.38;;;-4.77;100.00
70302;BME280;57706;56.326;43.882;2023-11-21T01:56:09;99855.97;;;-4.72;100.00
70302;BME280;57706;56.326;43.882;2023-11-21T01:58:35;99856.41;;;-4.63;100.00
70302;BME280;57706;56.326;43.882;2023-11-21T02:01:02;99855.25;;;-4.58;100.00
70302;BME280;57706;56.326;43.882;2023-11-21T02:03:28;99862.59;;;-4.50;100.00
70302;BME280;57706;56.326;43.882;2023-11-21T02:05:54;99860.75;;;-4.48;100.00
70302;BME280;57706;56.326;43.882;2023-11-21T02:08:19;99852.81;;;-4.43;100.00
70302;BME280;57706;56.326;43.882;2023-11-21T02:10:45;99855.50;;;-4.62;100.00
70302;BME280;57706;56.326;43.882;2023-11-21T02:13:11;99859.28;;;-4.52;100.00
70302;BME280;57706;56.326;43.882;2023-11-21T02:15:37;99855.59;;;-4.64;100.00
70302;BME280;57706;56.326;43.882;2023-11-21T02:18:04;99850.66;;;-4.51;100.00
70302;BME280;57706;56.326;43.882;2023-11-21T02:20:31;99856.31;;;-4.44;100.00
70302;BME280;57706;56.326;43.882;2023-11-21T02:23:00;99865.41;;;-4.38;100.00
70302;BME280;57706;56.326;43.882;2023-11-21T02:25:31;99868.75;;;-4.54;100.00
70302;BME280;57706;56.326;43.882;2023-11-21T02:28:01;99874.81;;;-4.55;100.00
70302;BME280;57706;56.326;43.882;2023-11-21T02:30:27;99871.66;;;-4.78;100.00
70302;BME280;57706;56.326;43.882;2023-11-21T02:32:54;99876.94;;;-4.81;100.00
70302;BME280;57706;56.326;43.882;2023-11-21T02:35:21;99868.94;;;-4.57;100.00
70302;BME280;57706;56.326;43.882;2023-11-21T02:37:47;99865.72;;;-4.45;100.00
70302;BME280;57706;56.326;43.882;2023-11-21T02:40:13;99868.06;;;-4.40;100.00
70302;BME280;57706;56.326;43.882;2023-11-21T02:42:47;99871.19;;;-4.51;100.00
70302;BME280;57706;56.326;43.882;2023-11-21T02:45:14;99867.84;;;-4.53;100.00
70302;BME280;57706;56.326;43.882;2023-11-21T02:47:45;99864.00;;;-4.44;100.00
70302;BME280;57706;56.326;43.882;2023-11-21T02:50:11;99864.06;;;-4.46;100.00
70302;BME280;57706;56.326;43.882;2023-11-21T02:52:37;99872.53;;;-4.44;100.00
70302;BME280;57706;56.326;43.882;2023-11-21T02:55:04;99864.47;;;-4.53;100.00
70302;BME280;57706;56.326;43.882;2023-11-21T02:57:31;99864.63;;;-4.57;100.00
70302;BME280;57706;56.326;43.882;2023-11-21T02:59:57;99871.03;;;-4.48;100.00
70302;BME280;57706;56.326;43.882;2023-11-21T03:02:22;99863.59;;;-4.36;100.00
70302;BME280;57706;56.326;43.882;2023-11-21T03:04:48;99867.06;;;-4.37;100.00
70302;BME280;57706;56.326;43.882;2023-11-21T03:07:15;99862.84;;;-4.38;100.00
70302;BME280;57706;56.326;43.882;2023-11-21T03:09:41;99866.25;;;-4.38;100.00
70302;BME280;57706;56.326;43.882;2023-11-21T03:12:07;99860.97;;;-4.35;100.00
70302;BME280;57706;56.326;43.882;2023-11-21T03:14:34;99857.28;;;-4.47;100.00
70302;BME280;57706;56.326;43.882;2023-11-21T03:17:00;99857.72;;;-4.72;100.00
70302;BME280;57706;56.326;43.882;2023-11-21T03:19:27;99851.13;;;-4.60;100.00
70302;BME280;57706;56.326;43.882;2023-11-21T03:21:53;99844.94;;;-4.56;100.00
70302;BME280;57706;56.326;43.882;2023-11-21T03:24:19;99843.09;;;-4.54;100.00
70302;BME280;57706;56.326;43.882;2023-11-21T03:26:46;99842.06;;;-4.50;100.00
70302;BME280;57706;56.326;43.882;2023-11-21T03:29:12;99850.19;;;-4.42;100.00
70302;BME280;57706;56.326;43.882;2023-11-21T03:31:38;99844.66;;;-4.67;100.00
70302;BME280;57706;56.326;43.882;2023-11-21T03:34:04;99840.41;;;-4.51;100.00
70302;BME280;57706;56.326;43.882;2023-11-21T03:36:30;99843.09;;;-4.54;100.00
70302;BME280;57706;56.326;43.882;2023-11-21T03:38:56;99836.06;;;-4.66;100.00
70302;BME280;57706;56.326;43.882;2023-11-21T03:41:22;99850.00;;;-4.54;100.00
70302;BME280;57706;56.326;43.882;2023-11-21T03:43:49;99847.66;;;-4.59;100.00
70302;BME280;57706;56.326;43.882;2023-11-21T03:46:14;99849.63;;;-4.64;100.00
70302;BME280;57706;56.326;43.882;2023-11-21T03:48:41;99852.78;;;-4.59;100.00
70302;BME280;57706;56.326;43.882;2023-11-21T03:51:07;99845.41;;;-4.65;100.00
70302;BME280;57706;56.326;43.882;2023-11-21T03:53:33;99842.81;;;-4.48;100.00
70302;BME280;57706;56.326;43.882;2023-11-21T03:56:02;99842.19;;;-4.35;100.00
70302;BME280;57706;56.326;43.882;2023-11-21T03:58:29;99849.03;;;-4.36;100.00
70302;BME280;57706;56.326;43.882;2023-11-21T04:00:55;99849.59;;;-4.47;100.00
70302;BME280;57706;56.326;43.882;2023-11-21T04:03:20;99850.31;;;-4.45;100.00
70302;BME280;57706;56.326;43.882;2023-11-21T04:05:46;99852.47;;;-4.53;100.00
70302;BME280;57706;56.326;43.882;2023-11-21T04:08:12;99861.06;;;-4.54;100.00
70302;BME280;57706;56.326;43.882;2023-11-21T04:10:38;99873.88;;;-4.54;100.00
70302;BME280;57706;56.326;43.882;2023-11-21T04:13:05;99870.41;;;-4.53;100.00
70302;BME280;57706;56.326;43.882;2023-11-21T04:15:32;99872.41;;;-4.58;100.00
70302;BME280;57706;56.326;43.882;2023-11-21T04:17:58;99874.31;;;-4.79;100.00
70302;BME280;57706;56.326;43.882;2023-11-21T04:20:24;99878.75;;;-4.65;100.00
70302;BME280;57706;56.326;43.882;2023-11-21T04:22:50;99881.59;;;-4.54;100.00
70302;BME280;57706;56.326;43.882;2023-11-21T04:25:16;99877.22;;;-4.70;100.00
70302;BME280;57706;56.326;43.882;2023-11-21T04:27:44;99876.16;;;-4.48;100.00
70302;BME280;57706;56.326;43.882;2023-11-21T04:30:11;99880.09;;;-4.58;100.00
70302;BME280;57706;56.326;43.882;2023-11-21T04:32:37;99874.13;;;-4.59;100.00
70302;BME280;57706;56.326;43.882;2023-11-21T04:35:04;99871.97;;;-4.66;100.00
70302;BME280;57706;56.326;43.882;2023-11-21T04:37:30;99877.31;;;-4.53;100.00
70302;BME280;57706;56.326;43.882;2023-11-21T04:39:56;99869.22;;;-4.63;100.00
70302;BME280;57706;56.326;43.882;2023-11-21T04:42:22;99869.53;;;-4.52;100.00
70302;BME280;57706;56.326;43.882;2023-11-21T04:44:48;99877.00;;;-4.47;100.00
70302;BME280;57706;56.326;43.882;2023-11-21T04:47:15;99881.97;;;-4.44;100.00
70302;BME280;57706;56.326;43.882;2023-11-21T04:49:45;99875.72;;;-4.56;100.00
70302;BME280;57706;56.326;43.882;2023-11-21T04:52:12;99867.66;;;-4.66;100.00
70302;BME280;57706;56.326;43.882;2023-11-21T04:54:38;99866.72;;;-4.47;100.00
70302;BME280;57706;56.326;43.882;2023-11-21T04:57:05;99871.47;;;-4.39;100.00
70302;BME280;57706;56.326;43.882;2023-11-21T04:59:34;99866.16;;;-4.36;100.00
70302;BME280;57706;56.326;43.882;2023-11-21T05:01:59;99857.88;;;-4.42;100.00
70302;BME280;57706;56.326;43.882;2023-11-21T05:04:28;99853.72;;;-4.44;100.00
70302;BME280;57706;56.326;43.882;2023-11-21T05:06:54;99842.63;;;-4.45;100.00
70302;BME280;57706;56.326;43.882;2023-11-21T05:09:19;99853.84;;;-4.63;100.00
70302;BME280;57706;56.326;43.882;2023-11-21T05:11:45;99849.00;;;-4.52;100.00
70302;BME280;57706;56.326;43.882;2023-11-21T05:14:11;99854.13;;;-4.52;100.00
70302;BME280;57706;56.326;43.882;2023-11-21T05:16:37;99847.66;;;-4.59;100.00
70302;BME280;57706;56.326;43.882;2023-11-21T05:19:03;99844.19;;;-4.58;100.00
70302;BME280;57706;56.326;43.882;2023-11-21T05:21:30;99853.09;;;-4.65;100.00
70302;BME280;57706;56.326;43.882;2023-11-21T05:23:58;99863.97;;;-4.60;100.00
70302;BME280;57706;56.326;43.882;2023-11-21T05:26:24;99870.31;;;-4.67;100.00
70302;BME280;57706;56.326;43.882;2023-11-21T05:28:50;99874.72;;;-4.53;100.00
70302;BME280;57706;56.326;43.882;2023-11-21T05:31:16;99874.47;;;-4.65;100.00
70302;BME280;57706;56.326;43.882;2023-11-21T05:33:42;99882.00;;;-4.62;100.00
70302;BME280;57706;56.326;43.882;2023-11-21T05:36:07;99880.81;;;-4.38;100.00
70302;BME280;57706;56.326;43.882;2023-11-21T05:38:35;99871.50;;;-4.23;100.00
70302;BME280;57706;56.326;43.882;2023-11-21T05:41:02;99871.53;;;-4.41;100.00
70302;BME280;57706;56.326;43.882;2023-11-21T05:43:29;99870.00;;;-4.28;100.00
70302;BME280;57706;56.326;43.882;2023-11-21T05:45:56;99870.59;;;-4.22;100.00
70302;BME280;57706;56.326;43.882;2023-11-21T05:48:22;99875.06;;;-4.26;100.00
70302;BME280;57706;56.326;43.882;2023-11-21T05:50:49;99880.53;;;-4.16;100.00
70302;BME280;57706;56.326;43.882;2023-11-21T05:53:15;99881.03;;;-4.09;100.00
70302;BME280;57706;56.326;43.882;2023-11-21T05:55:42;99873.72;;;-4.33;100.00
70302;BME280;57706;56.326;43.882;2023-11-21T05:58:08;99875.44;;;-4.34;100.00
70302;BME280;57706;56.326;43.882;2023-11-21T06:00:34;99874.09;;;-4.07;100.00
70302;BME280;57706;56.326;43.882;2023-11-21T06:02:59;99866.31;;;-3.90;100.00
70302;BME280;57706;56.326;43.882;2023-11-21T06:05:26;99872.28;;;-3.89;100.00
70302;BME280;57706;56.326;43.882;2023-11-21T06:07:53;99887.66;;;-4.05;100.00
70302;BME280;57706;56.326;43.882;2023-11-21T06:10:21;99890.81;;;-4.00;100.00
70302;BME280;57706;56.326;43.882;2023-11-21T06:12:47;99884.72;;;-3.81;100.00
70302;BME280;57706;56.326;43.882;2023-11-21T06:15:13;99886.03;;;-3.74;100.00
70302;BME280;57706;56.326;43.882;2023-11-21T06:17:40;99891.66;;;-3.83;100.00
70302;BME280;57706;56.326;43.882;2023-11-21T06:20:07;99876.94;;;-3.80;100.00
70302;BME280;57706;56.326;43.882;2023-11-21T06:22:41;99879.19;;;-3.74;100.00
70302;BME280;57706;56.326;43.882;2023-11-21T06:25:08;99878.91;;;-3.53;100.00
70302;BME280;57706;56.326;43.882;2023-11-21T06:27:37;99882.22;;;-3.35;100.00
70302;BME280;57706;56.326;43.882;2023-11-21T06:30:04;99887.34;;;-3.35;100.00
70302;BME280;57706;56.326;43.882;2023-11-21T06:32:30;99877.53;;;-3.28;100.00
70302;BME280;57706;56.326;43.882;2023-11-21T06:34:56;99871.75;;;-3.32;100.00
70302;BME280;57706;56.326;43.882;2023-11-21T06:37:26;99874.03;;;-3.11;100.00
70302;BME280;57706;56.326;43.882;2023-11-21T06:39:53;99868.44;;;-3.34;100.00
70302;BME280;57706;56.326;43.882;2023-11-21T06:42:19;99867.00;;;-3.23;100.00
70302;BME280;57706;56.326;43.882;2023-11-21T06:44:45;99872.00;;;-3.06;100.00
70302;BME280;57706;56.326;43.882;2023-11-21T06:47:11;99878.28;;;-2.95;100.00
70302;BME280;57706;56.326;43.882;2023-11-21T06:49:37;99886.75;;;-2.93;100.00
70302;BME280;57706;56.326;43.882;2023-11-21T06:52:04;99883.75;;;-3.16;100.00
70302;BME280;57706;56.326;43.882;2023-11-21T06:54:33;99890.59;;;-3.00;100.00
70302;BME280;57706;56.326;43.882;2023-11-21T06:57:00;99899.22;;;-3.01;100.00
70302;BME280;57706;56.326;43.882;2023-11-21T06:59:28;99899.63;;;-2.93;100.00
70302;BME280;57706;56.326;43.882;2023-11-21T07:01:54;99898.44;;;-3.18;100.00
70302;BME280;57706;56.326;43.882;2023-11-21T07:04:20;99886.13;;;-3.13;100.00
70302;BME280;57706;56.326;43.882;2023-11-21T07:06:45;99889.47;;;-3.11;100.00
70302;BME280;57706;56.326;43.882;2023-11-21T07:09:11;99877.00;;;-3.02;100.00
70302;BME280;57706;56.326;43.882;2023-11-21T07:11:38;99889.09;;;-3.05;99.76
70302;BME280;57706;56.326;43.882;2023-11-21T07:14:04;99873.09;;;-2.79;100.00
70302;BME280;57706;56.326;43.882;2023-11-21T07:16:36;99872.38;;;-2.67;97.30
70302;BME280;57706;56.326;43.882;2023-11-21T07:19:05;99886.75;;;-2.93;94.47
70302;BME280;57706;56.326;43.882;2023-11-21T07:21:35;99879.97;;;-2.94;98.34
70302;BME280;57706;56.326;43.882;2023-11-21T07:24:02;99885.75;;;-2.91;96.33
70302;BME280;57706;56.326;43.882;2023-11-21T07:26:28;99893.31;;;-2.73;96.77
70302;BME280;57706;56.326;43.882;2023-11-21T07:28:54;99895.97;;;-2.74;95.14
70302;BME280;57706;56.326;43.882;2023-11-21T07:31:20;99900.56;;;-2.80;95.09
70302;BME280;57706;56.326;43.882;2023-11-21T07:33:46;99906.72;;;-2.68;96.88
70302;BME280;57706;56.326;43.882;2023-11-21T07:36:15;99919.72;;;-2.69;95.86
70302;BME280;57706;56.326;43.882;2023-11-21T07:38:42;99922.44;;;-3.03;94.39
70302;BME280;57706;56.326;43.882;2023-11-21T07:41:08;99928.72;;;-2.93;98.18
70302;BME280;57706;56.326;43.882;2023-11-21T07:43:35;99922.63;;;-2.75;97.45
70302;BME280;57706;56.326;43.882;2023-11-21T07:46:04;99924.84;;;-2.69;96.34
70302;BME280;57706;56.326;43.882;2023-11-21T07:48:30;99921.06;;;-2.78;96.21
70302;BME280;57706;56.326;43.882;2023-11-21T07:50:57;99916.75;;;-2.78;97.24
70302;BME280;57706;56.326;43.882;2023-11-21T07:53:26;99909.56;;;-2.72;96.91
70302;BME280;57706;56.326;43.882;2023-11-21T07:55:54;99911.94;;;-2.84;97.28
70302;BME280;57706;56.326;43.882;2023-11-21T07:58:20;99914.19;;;-2.63;96.93
70302;BME280;57706;56.326;43.882;2023-11-21T08:00:46;99920.81;;;-2.59;95.75
70302;BME280;57706;56.326;43.882;2023-11-21T08:03:16;99910.69;;;-2.62;95.14
70302;BME280;57706;56.326;43.882;2023-11-21T08:05:44;99911.44;;;-2.45;95.16
70302;BME280;57706;56.326;43.882;2023-11-21T08:08:10;99908.16;;;-2.47;93.72
70302;BME280;57706;56.326;43.882;2023-11-21T08:10:36;99906.69;;;-2.52;95.16
70302;BME280;57706;56.326;43.882;2023-11-21T08:13:03;99911.81;;;-2.37;94.33
70302;BME280;57706;56.326;43.882;2023-11-21T08:15:29;99908.88;;;-2.60;91.36
70302;BME280;57706;56.326;43.882;2023-11-21T08:17:57;99913.19;;;-2.60;92.05
70302;BME280;57706;56.326;43.882;2023-11-21T08:20:24;99913.53;;;-2.67;92.99
70302;BME280;57706;56.326;43.882;2023-11-21T08:22:50;99910.19;;;-2.53;93.54
70302;BME280;57706;56.326;43.882;2023-11-21T08:25:18;99910.56;;;-2.75;92.09
70302;BME280;57706;56.326;43.882;2023-11-21T08:27:46;99907.28;;;-2.77;92.15
70302;BME280;57706;56.326;43.882;2023-11-21T08:30:12;99911.72;;;-2.65;92.69
70302;BME280;57706;56.326;43.882;2023-11-21T08:32:39;99903.50;;;-2.41;94.50
70302;BME280;57706;56.326;43.882;2023-11-21T08:35:07;99911.75;;;-2.81;90.73
70302;BME280;57706;56.326;43.882;2023-11-21T08:37:33;99919.47;;;-2.81;95.19
70302;BME280;57706;56.326;43.882;2023-11-21T08:40:04;99914.59;;;-2.85;94.55
70302;BME280;57706;56.326;43.882;2023-11-21T08:42:34;99918.75;;;-2.83;94.10
70302;BME280;57706;56.326;43.882;2023-11-21T08:44:59;99922.56;;;-2.74;95.24
70302;BME280;57706;56.326;43.882;2023-11-21T08:47:25;99922.66;;;-2.61;93.36
70302;BME280;57706;56.326;43.882;2023-11-21T08:49:52;99925.97;;;-2.59;92.79
70302;BME280;57706;56.326;43.882;2023-11-21T08:52:19;99918.09;;;-2.41;93.90
70302;BME280;57706;56.326;43.882;2023-11-21T08:54:49;99920.47;;;-2.38;93.13
70302;BME280;57706;56.326;43.882;2023-11-21T08:57:24;99921.50;;;-2.26;92.72
70302;BME280;57706;56.326;43.882;2023-11-21T08:59:50;99920.13;;;-2.32;91.43
70302;BME280;57706;56.326;43.882;2023-11-21T09:02:25;99922.22;;;-2.39;92.22
70302;BME280;57706;56.326;43.882;2023-11-21T09:04:52;99921.00;;;-2.47;91.02
70302;BME280;57706;56.326;43.882;2023-11-21T09:07:19;99912.59;;;-2.35;91.90
70302;BME280;57706;56.326;43.882;2023-11-21T09:09:46;99919.38;;;-2.49;89.64
70302;BME280;57706;56.326;43.882;2023-11-21T09:12:13;99929.50;;;-2.31;91.40
70302;BME280;57706;56.326;43.882;2023-11-21T09:14:39;99923.06;;;-2.09;90.05
70302;BME280;57706;56.326;43.882;2023-11-21T09:17:05;99925.00;;;-2.27;86.34
70302;BME280;57706;56.326;43.882;2023-11-21T09:19:40;99929.38;;;-2.44;90.69
70302;BME280;57706;56.326;43.882;2023-11-21T09:22:06;99927.72;;;-2.45;90.86
70302;BME280;57706;56.326;43.882;2023-11-21T09:24:35;99937.19;;;-2.60;90.18
70302;BME280;57706;56.326;43.882;2023-11-21T09:27:01;99935.66;;;-2.79;92.67
70302;BME280;57706;56.326;43.882;2023-11-21T09:29:27;99935.88;;;-2.67;95.21
70302;BME280;57706;56.326;43.882;2023-11-21T09:31:52;99932.03;;;-2.45;93.19
70302;BME280;57706;56.326;43.882;2023-11-21T09:34:20;99930.22;;;-2.43;89.89
70302;BME280;57706;56.326;43.882;2023-11-21T09:36:47;99931.72;;;-2.25;90.69
70302;BME280;57706;56.326;43.882;2023-11-21T09:39:13;99923.06;;;-2.09;88.59
70302;BME280;57706;56.326;43.882;2023-11-21T09:41:51;99930.06;;;-2.11;87.71
70302;BME280;57706;56.326;43.882;2023-11-21T09:44:32;99932.78;;;-2.58;89.27
70302;BME280;57706;56.326;43.882;2023-11-21T09:46:59;99925.75;;;-2.70;91.28
70302;BME280;57706;56.326;43.882;2023-11-21T09:49:26;99930.00;;;-2.69;93.27
70302;BME280;57706;56.326;43.882;2023-11-21T09:51:55;99922.78;;;-2.48;93.18
70302;BME280;57706;56.326;43.882;2023-11-21T09:54:22;99924.97;;;-2.56;92.58
70302;BME280;57706;56.326;43.882;2023-11-21T09:56:49;99928.47;;;-2.43;92.14
70302;BME280;57706;56.326;43.882;2023-11-21T09:59:15;99921.59;;;-2.42;90.40
70302;BME280;57706;56.326;43.882;2023-11-21T10:01:42;99917.13;;;-2.55;91.29
70302;BME280;57706;56.326;43.882;2023-11-21T10:04:09;99914.94;;;-2.46;92.07
70302;BME280;57706;56.326;43.882;2023-11-21T10:06:41;99908.25;;;-2.35;91.42
70302;BME280;57706;56.326;43.882;2023-11-21T10:09:09;99912.75;;;-2.24;90.00
70302;BME280;57706;56.326;43.882;2023-11-21T10:11:41;99917.94;;;-2.09;89.38
70302;BME280;57706;56.326;43.882;2023-11-21T10:14:11;99918.38;;;-2.31;88.27
70302;BME280;57706;56.326;43.882;2023-11-21T10:16:40;99918.28;;;-2.44;89.11
70302;BME280;57706;56.326;43.882;2023-11-21T10:19:10;99917.91;;;-2.38;90.26
70302;BME280;57706;56.326;43.882;2023-11-21T10:21:38;99920.22;;;-2.79;93.23
70302;BME280;57706;56.326;43.882;2023-11-21T10:24:04;99927.44;;;-2.69;93.22
70302;BME280;57706;56.326;43.882;2023-11-21T10:26:32;99923.28;;;-3.02;95.66
70302;BME280;57706;56.326;43.882;2023-11-21T10:29:02;99915.03;;;-3.40;98.76
70302;BME280;57706;56.326;43.882;2023-11-21T10:31:32;99925.00;;;-3.03;100.00
70302;BME280;57706;56.326;43.882;2023-11-21T10:34:18;99923.00;;;-2.67;98.24
70302;BME280;57706;56.326;43.882;2023-11-21T10:36:44;99916.72;;;-2.47;95.54
70302;BME280;57706;56.326;43.882;2023-11-21T10:39:18;99922.28;;;-2.55;94.39
70302;BME280;57706;56.326;43.882;2023-11-21T10:41:45;99932.56;;;-2.55;94.13
70302;BME280;57706;56.326;43.882;2023-11-21T10:44:17;99928.84;;;-2.80;93.08
70302;BME280;57706;56.326;43.882;2023-11-21T10:46:48;99932.34;;;-2.81;95.48
70302;BME280;57706;56.326;43.882;2023-11-21T10:49:20;99931.53;;;-2.81;96.37
70302;BME280;57706;56.326;43.882;2023-11-21T10:51:46;99935.44;;;-2.90;96.13
70302;BME280;57706;56.326;43.882;2023-11-21T10:54:18;99920.59;;;-2.85;95.80
70302;BME280;57706;56.326;43.882;2023-11-21T10:56:45;99942.09;;;-2.86;95.11
70302;BME280;57706;56.326;43.882;2023-11-21T10:59:12;99936.75;;;-2.83;95.20
70302;BME280;57706;56.326;43.882;2023-11-21T11:01:46;99938.72;;;-3.02;96.94
70302;BME280;57706;56.326;43.882;2023-11-21T11:04:15;99940.00;;;-2.95;98.42
70302;BME280;57706;56.326;43.882;2023-11-21T11:06:43;99935.44;;;-2.90;99.25
70302;BME280;57706;56.326;43.882;2023-11-21T11:09:13;99940.41;;;-2.87;97.09
70302;BME280;57706;56.326;43.882;2023-11-21T11:11:40;99949.78;;;-2.86;96.81
70302;BME280;57706;56.326;43.882;2023-11-21T11:14:15;99937.25;;;-3.23;99.41
70302;BME280;57706;56.326;43.882;2023-11-21T11:16:41;99948.34;;;-3.06;100.00
70302;BME280;57706;56.326;43.882;2023-11-21T11:19:09;99954.28;;;-3.06;99.63
70302;BME280;57706;56.326;43.882;2023-11-21T11:22:28;99954.06;;;-3.17;99.91
70302;BME280;57706;56.326;43.882;2023-11-21T11:35:10;99962.75;;;-3.04;100.00
70302;BME280;57706;56.326;43.882;2023-11-21T11:37:42;99962.13;;;-3.23;100.00
70302;BME280;57706;56.326;43.882;2023-11-21T11:40:11;99956.72;;;-3.19;100.00
70302;BME280;57706;56.326;43.882;2023-11-21T11:42:37;99956.47;;;-3.14;100.00
70302;BME280;57706;56.326;43.882;2023-11-21T11:45:17;99963.78;;;-3.22;100.00
70302;BME280;57706;56.326;43.882;2023-11-21T11:47:47;99958.94;;;-3.28;100.00
70302;BME280;57706;56.326;43.882;2023-11-21T11:50:13;99965.00;;;-3.29;100.00
70302;BME280;57706;56.326;43.882;2023-11-21T11:52:46;99954.81;;;-3.47;100.00
70302;BME280;57706;56.326;43.882;2023-11-21T11:55:16;99960.97;;;-3.34;100.00
70302;BME280;57706;56.326;43.882;2023-11-21T11:57:47;99948.63;;;-3.43;100.00
70302;BME280;57706;56.326;43.882;2023-11-21T12:00:17;99948.78;;;-3.30;100.00
70302;BME280;57706;56.326;43.882;2023-11-21T12:02:52;99957.31;;;-3.46;100.00
70302;BME280;57706;56.326;43.882;2023-11-21T12:05:20;99955.00;;;-3.50;100.00
70302;BME280;57706;56.326;43.882;2023-11-21T12:10:21;99947.13;;;-3.47;100.00
70302;BME280;57706;56.326;43.882;2023-11-21T12:12:49;99952.00;;;-3.42;100.00
70302;BME280;57706;56.326;43.882;2023-11-21T12:15:16;99942.53;;;-3.58;100.00
70302;BME280;57706;56.326;43.882;2023-11-21T12:17:43;99943.97;;;-3.52;100.00
70302;BME280;57706;56.326;43.882;2023-11-21T12:20:10;99942.16;;;-3.50;100.00
70302;BME280;57706;56.326;43.882;2023-11-21T12:22:51;99951.09;;;-3.57;100.00
70302;BME280;57706;56.326;43.882;2023-11-21T12:25:19;99943.81;;;-3.65;100.00
70302;BME280;57706;56.326;43.882;2023-11-21T12:27:50;99953.97;;;-3.64;100.00
70302;BME280;57706;56.326;43.882;2023-11-21T12:30:19;99951.28;;;-3.61;100.00
70302;BME280;57706;56.326;43.882;2023-11-21T12:32:49;99952.09;;;-3.60;100.00
70302;BME280;57706;56.326;43.882;2023-11-21T12:35:21;99956.66;;;-3.49;100.00
70302;BME280;57706;56.326;43.882;2023-11-21T12:37:47;99953.41;;;-3.69;100.00
70302;BME280;57706;56.326;43.882;2023-11-21T12:40:14;99951.97;;;-3.91;100.00
70302;BME280;57706;56.326;43.882;2023-11-21T12:42:41;99955.88;;;-3.83;100.00
70302;BME280;57706;56.326;43.882;2023-11-21T12:45:24;99963.22;;;-3.93;100.00
70302;BME280;57706;56.326;43.882;2023-11-21T12:47:58;99958.16;;;-3.95;100.00
70302;BME280;57706;56.326;43.882;2023-11-21T12:50:27;99955.22;;;-3.87;100.00
70302;BME280;57706;56.326;43.882;2023-11-21T12:53:03;99954.97;;;-3.82;100.00
70302;BME280;57706;56.326;43.882;2023-11-21T12:55:34;99956.03;;;-3.87;100.00
70302;BME280;57706;56.326;43.882;2023-11-21T12:58:04;99957.78;;;-3.71;100.00